sensor_id;sensor_type;location;lat;lon;timestamp;P1;durP1;ratioP1;P2;durP2;ratioP2
34433;SDS011;34290;48.562;13.384;2023-07-29T00:01:36;5.25;;;3.55;;
34433;SDS011;34290;48.562;13.384;2023-07-29T00:04:05;8.95;;;3.80;;
34433;SDS011;34290;48.562;13.384;2023-07-29T00:06:33;6.88;;;2.92;;
34433;SDS011;34290;48.562;13.384;2023-07-29T00:09:00;5.15;;;2.85;;
34433;SDS011;34290;48.562;13.384;2023-07-29T00:11:28;5.07;;;2.92;;
34433;SDS011;34290;48.562;13.384;2023-07-29T00:13:55;4.30;;;2.75;;
34433;SDS011;34290;48.562;13.384;2023-07-29T00:16:22;6.28;;;3.38;;
34433;SDS011;34290;48.562;13.384;2023-07-29T00:18:49;6.75;;;2.75;;
34433;SDS011;34290;48.562;13.384;2023-07-29T00:21:16;5.03;;;2.70;;
34433;SDS011;34290;48.562;13.384;2023-07-29T00:23:43;3.88;;;2.53;;
34433;SDS011;34290;48.562;13.384;2023-07-29T00:26:11;4.85;;;2.80;;
34433;SDS011;34290;48.562;13.384;2023-07-29T00:28:39;4.30;;;2.65;;
34433;SDS011;34290;48.562;13.384;2023-07-29T00:31:06;7.68;;;2.30;;
34433;SDS011;34290;48.562;13.384;2023-07-29T00:33:33;4.72;;;2.10;;
34433;SDS011;34290;48.562;13.384;2023-07-29T00:36:00;4.30;;;2.45;;
34433;SDS011;34290;48.562;13.384;2023-07-29T00:38:28;4.78;;;2.70;;
34433;SDS011;34290;48.562;13.384;2023-07-29T00:40:55;5.15;;;2.80;;
34433;SDS011;34290;48.562;13.384;2023-07-29T00:43:24;5.95;;;2.08;;
34433;SDS011;34290;48.562;13.384;2023-07-29T00:45:52;4.32;;;2.33;;
34433;SDS011;34290;48.562;13.384;2023-07-29T00:48:19;5.28;;;2.45;;
34433;SDS011;34290;48.562;13.384;2023-07-29T00:50:47;5.47;;;2.22;;
34433;SDS011;34290;48.562;13.384;2023-07-29T00:53:14;5.78;;;2.28;;
34433;SDS011;34290;48.562;13.384;2023-07-29T00:55:41;4.38;;;2.60;;
34433;SDS011;34290;48.562;13.384;2023-07-29T00:58:09;3.70;;;2.20;;
34433;SDS011;34290;48.562;13.384;2023-07-29T01:00:36;5.13;;;2.67;;
34433;SDS011;34290;48.562;13.384;2023-07-29T01:03:05;5.15;;;2.45;;
34433;SDS011;34290;48.562;13.384;2023-07-29T01:05:33;3.28;;;2.00;;
34433;SDS011;34290;48.562;13.384;2023-07-29T01:08:08;6.68;;;2.40;;
34433;SDS011;34290;48.562;13.384;2023-07-29T01:10:44;4.93;;;2.00;;
34433;SDS011;34290;48.562;13.384;2023-07-29T01:13:19;3.60;;;2.20;;
34433;SDS011;34290;48.562;13.384;2023-07-29T01:15:55;3.45;;;1.92;;
34433;SDS011;34290;48.562;13.384;2023-07-29T01:18:28;6.22;;;2.33;;
34433;SDS011;34290;48.562;13.384;2023-07-29T01:20:58;6.13;;;2.00;;
34433;SDS011;34290;48.562;13.384;2023-07-29T01:23:29;4.45;;;2.38;;
34433;SDS011;34290;48.562;13.384;2023-07-29T01:25:56;3.13;;;2.00;;
34433;SDS011;34290;48.562;13.384;2023-07-29T01:28:24;6.05;;;2.30;;
34433;SDS011;34290;48.562;13.384;2023-07-29T01:30:54;6.05;;;2.30;;
34433;SDS011;34290;48.562;13.384;2023-07-29T01:33:25;5.18;;;2.28;;
34433;SDS011;34290;48.562;13.384;2023-07-29T01:35:54;4.78;;;2.45;;
34433;SDS011;34290;48.562;13.384;2023-07-29T01:38:27;4.93;;;2.67;;
34433;SDS011;34290;48.562;13.384;2023-07-29T01:41:00;4.95;;;2.40;;
34433;SDS011;34290;48.562;13.384;2023-07-29T01:43:27;4.95;;;2.75;;
34433;SDS011;34290;48.562;13.384;2023-07-29T01:45:55;4.47;;;2.58;;
34433;SDS011;34290;48.562;13.384;2023-07-29T01:48:22;6.13;;;2.53;;
34433;SDS011;34290;48.562;13.384;2023-07-29T01:50:49;6.22;;;2.90;;
34433;SDS011;34290;48.562;13.384;2023-07-29T01:53:16;3.78;;;2.75;;
34433;SDS011;34290;48.562;13.384;2023-07-29T01:55:44;5.60;;;3.20;;
34433;SDS011;34290;48.562;13.384;2023-07-29T01:58:11;6.05;;;3.08;;
34433;SDS011;34290;48.562;13.384;2023-07-29T02:00:39;5.57;;;3.28;;
34433;SDS011;34290;48.562;13.384;2023-07-29T02:03:06;5.32;;;3.20;;
34433;SDS011;34290;48.562;13.384;2023-07-29T02:05:33;5.93;;;3.20;;
34433;SDS011;34290;48.562;13.384;2023-07-29T02:08:00;5.90;;;2.92;;
34433;SDS011;34290;48.562;13.384;2023-07-29T02:10:27;6.07;;;3.15;;
34433;SDS011;34290;48.562;13.384;2023-07-29T02:12:55;4.88;;;3.00;;
34433;SDS011;34290;48.562;13.384;2023-07-29T02:15:22;7.43;;;3.22;;
34433;SDS011;34290;48.562;13.384;2023-07-29T02:17:49;6.22;;;3.13;;
34433;SDS011;34290;48.562;13.384;2023-07-29T02:20:17;5.10;;;3.35;;
34433;SDS011;34290;48.562;13.384;2023-07-29T02:22:44;6.88;;;3.45;;
34433;SDS011;34290;48.562;13.384;2023-07-29T02:25:11;8.32;;;3.45;;
34433;SDS011;34290;48.562;13.384;2023-07-29T02:27:38;5.22;;;3.17;;
34433;SDS011;34290;48.562;13.384;2023-07-29T02:30:07;7.07;;;3.50;;
34433;SDS011;34290;48.562;13.384;2023-07-29T02:32:35;5.85;;;3.50;;
34433;SDS011;34290;48.562;13.384;2023-07-29T02:35:02;6.18;;;3.70;;
34433;SDS011;34290;48.562;13.384;2023-07-29T02:37:30;10.85;;;4.53;;
34433;SDS011;34290;48.562;13.384;2023-07-29T02:39:57;7.47;;;3.88;;
34433;SDS011;34290;48.562;13.384;2023-07-29T02:42:24;11.68;;;3.72;;
34433;SDS011;34290;48.562;13.384;2023-07-29T02:44:51;6.70;;;3.75;;
34433;SDS011;34290;48.562;13.384;2023-07-29T02:47:20;7.15;;;3.67;;
34433;SDS011;34290;48.562;13.384;2023-07-29T02:49:47;7.45;;;3.80;;
34433;SDS011;34290;48.562;13.384;2023-07-29T02:52:14;5.97;;;3.10;;
34433;SDS011;34290;48.562;13.384;2023-07-29T02:54:40;9.63;;;3.75;;
34433;SDS011;34290;48.562;13.384;2023-07-29T02:57:08;5.30;;;3.33;;
34433;SDS011;34290;48.562;13.384;2023-07-29T02:59:35;7.63;;;3.72;;
34433;SDS011;34290;48.562;13.384;2023-07-29T03:02:02;6.40;;;3.63;;
34433;SDS011;34290;48.562;13.384;2023-07-29T03:04:30;6.10;;;3.60;;
34433;SDS011;34290;48.562;13.384;2023-07-29T03:06:57;7.15;;;3.38;;
34433;SDS011;34290;48.562;13.384;2023-07-29T03:09:25;6.20;;;3.42;;
34433;SDS011;34290;48.562;13.384;2023-07-29T03:11:51;7.07;;;3.47;;
34433;SDS011;34290;48.562;13.384;2023-07-29T03:14:19;5.72;;;3.70;;
34433;SDS011;34290;48.562;13.384;2023-07-29T03:16:47;9.35;;;3.83;;
34433;SDS011;34290;48.562;13.384;2023-07-29T03:19:14;8.68;;;3.28;;
34433;SDS011;34290;48.562;13.384;2023-07-29T03:21:43;5.60;;;3.40;;
34433;SDS011;34290;48.562;13.384;2023-07-29T03:24:10;6.72;;;3.15;;
34433;SDS011;34290;48.562;13.384;2023-07-29T03:26:37;6.70;;;3.70;;
34433;SDS011;34290;48.562;13.384;2023-07-29T03:29:04;7.45;;;3.45;;
34433;SDS011;34290;48.562;13.384;2023-07-29T03:31:31;5.90;;;3.45;;
34433;SDS011;34290;48.562;13.384;2023-07-29T03:33:58;8.90;;;3.60;;
34433;SDS011;34290;48.562;13.384;2023-07-29T03:36:25;6.20;;;3.42;;
34433;SDS011;34290;48.562;13.384;2023-07-29T03:38:54;6.38;;;3.03;;
34433;SDS011;34290;48.562;13.384;2023-07-29T03:41:21;5.93;;;3.45;;
34433;SDS011;34290;48.562;13.384;2023-07-29T03:43:48;7.78;;;3.35;;
34433;SDS011;34290;48.562;13.384;2023-07-29T03:46:15;6.03;;;3.22;;
34433;SDS011;34290;48.562;13.384;2023-07-29T03:48:44;6.60;;;3.28;;
34433;SDS011;34290;48.562;13.384;2023-07-29T03:51:11;7.05;;;3.25;;
34433;SDS011;34290;48.562;13.384;2023-07-29T03:53:38;7.82;;;3.47;;
34433;SDS011;34290;48.562;13.384;2023-07-29T03:56:06;9.30;;;3.78;;
34433;SDS011;34290;48.562;13.384;2023-07-29T03:58:34;7.03;;;3.35;;
34433;SDS011;34290;48.562;13.384;2023-07-29T04:01:01;7.57;;;3.47;;
34433;SDS011;34290;48.562;13.384;2023-07-29T04:03:29;8.20;;;3.08;;
34433;SDS011;34290;48.562;13.384;2023-07-29T04:05:56;9.18;;;3.03;;
34433;SDS011;34290;48.562;13.384;2023-07-29T04:08:23;6.43;;;3.30;;
34433;SDS011;34290;48.562;13.384;2023-07-29T04:10:50;11.80;;;3.90;;
34433;SDS011;34290;48.562;13.384;2023-07-29T04:13:19;9.90;;;3.80;;
34433;SDS011;34290;48.562;13.384;2023-07-29T04:15:45;5.20;;;3.35;;
34433;SDS011;34290;48.562;13.384;2023-07-29T04:18:12;7.00;;;3.45;;
34433;SDS011;34290;48.562;13.384;2023-07-29T04:20:39;6.57;;;3.47;;
34433;SDS011;34290;48.562;13.384;2023-07-29T04:23:06;6.07;;;3.65;;
34433;SDS011;34290;48.562;13.384;2023-07-29T04:25:33;7.32;;;3.58;;
34433;SDS011;34290;48.562;13.384;2023-07-29T04:28:00;6.07;;;3.58;;
34433;SDS011;34290;48.562;13.384;2023-07-29T04:30:31;5.07;;;3.42;;
34433;SDS011;34290;48.562;13.384;2023-07-29T04:32:58;6.22;;;3.33;;
34433;SDS011;34290;48.562;13.384;2023-07-29T04:35:25;6.60;;;3.60;;
34433;SDS011;34290;48.562;13.384;2023-07-29T04:37:52;6.32;;;3.55;;
34433;SDS011;34290;48.562;13.384;2023-07-29T04:40:19;5.90;;;3.33;;
34433;SDS011;34290;48.562;13.384;2023-07-29T04:42:47;4.13;;;2.88;;
34433;SDS011;34290;48.562;13.384;2023-07-29T04:45:15;4.78;;;3.10;;
34433;SDS011;34290;48.562;13.384;2023-07-29T04:47:44;8.57;;;3.00;;
34433;SDS011;34290;48.562;13.384;2023-07-29T04:50:11;5.38;;;3.50;;
34433;SDS011;34290;48.562;13.384;2023-07-29T04:52:38;5.13;;;3.70;;
34433;SDS011;34290;48.562;13.384;2023-07-29T04:55:05;7.68;;;3.45;;
34433;SDS011;34290;48.562;13.384;2023-07-29T04:57:32;6.65;;;3.67;;
34433;SDS011;34290;48.562;13.384;2023-07-29T04:59:59;5.90;;;3.63;;
34433;SDS011;34290;48.562;13.384;2023-07-29T05:02:26;4.25;;;2.95;;
34433;SDS011;34290;48.562;13.384;2023-07-29T05:04:55;8.13;;;3.03;;
34433;SDS011;34290;48.562;13.384;2023-07-29T05:07:21;9.65;;;3.80;;
34433;SDS011;34290;48.562;13.384;2023-07-29T05:09:48;4.85;;;3.30;;
34433;SDS011;34290;48.562;13.384;2023-07-29T05:12:15;7.28;;;3.20;;
34433;SDS011;34290;48.562;13.384;2023-07-29T05:14:42;6.53;;;3.05;;
34433;SDS011;34290;48.562;13.384;2023-07-29T05:17:09;6.82;;;3.35;;
34433;SDS011;34290;48.562;13.384;2023-07-29T05:19:36;6.60;;;2.95;;
34433;SDS011;34290;48.562;13.384;2023-07-29T05:22:05;3.97;;;2.72;;
34433;SDS011;34290;48.562;13.384;2023-07-29T05:24:32;5.60;;;2.58;;
34433;SDS011;34290;48.562;13.384;2023-07-29T05:26:59;4.00;;;2.55;;
34433;SDS011;34290;48.562;13.384;2023-07-29T05:29:25;6.18;;;2.65;;
34433;SDS011;34290;48.562;13.384;2023-07-29T05:31:52;4.18;;;2.45;;
34433;SDS011;34290;48.562;13.384;2023-07-29T05:34:20;5.72;;;2.75;;
34433;SDS011;34290;48.562;13.384;2023-07-29T05:36:47;4.13;;;2.40;;
34433;SDS011;34290;48.562;13.384;2023-07-29T05:39:15;6.05;;;2.65;;
34433;SDS011;34290;48.562;13.384;2023-07-29T05:41:42;5.97;;;2.67;;
34433;SDS011;34290;48.562;13.384;2023-07-29T05:44:09;3.25;;;2.22;;
34433;SDS011;34290;48.562;13.384;2023-07-29T05:46:36;4.45;;;2.35;;
34433;SDS011;34290;48.562;13.384;2023-07-29T05:49:03;3.78;;;2.30;;
34433;SDS011;34290;48.562;13.384;2023-07-29T05:51:30;3.65;;;2.40;;
34433;SDS011;34290;48.562;13.384;2023-07-29T05:53:57;4.28;;;2.25;;
34433;SDS011;34290;48.562;13.384;2023-07-29T05:56:25;5.82;;;2.25;;
34433;SDS011;34290;48.562;13.384;2023-07-29T05:58:52;3.20;;;2.30;;
34433;SDS011;34290;48.562;13.384;2023-07-29T06:01:19;5.18;;;2.47;;
34433;SDS011;34290;48.562;13.384;2023-07-29T06:03:50;3.97;;;2.30;;
34433;SDS011;34290;48.562;13.384;2023-07-29T06:06:17;3.42;;;2.13;;
34433;SDS011;34290;48.562;13.384;2023-07-29T06:08:48;3.03;;;2.22;;
34433;SDS011;34290;48.562;13.384;2023-07-29T06:11:15;2.63;;;2.10;;
34433;SDS011;34290;48.562;13.384;2023-07-29T06:13:45;6.13;;;2.13;;
34433;SDS011;34290;48.562;13.384;2023-07-29T06:16:14;3.40;;;2.03;;
34433;SDS011;34290;48.562;13.384;2023-07-29T06:18:41;4.13;;;2.35;;
34433;SDS011;34290;48.562;13.384;2023-07-29T06:21:08;3.70;;;2.20;;
34433;SDS011;34290;48.562;13.384;2023-07-29T06:23:37;2.58;;;1.95;;
34433;SDS011;34290;48.562;13.384;2023-07-29T06:26:04;4.55;;;2.03;;
34433;SDS011;34290;48.562;13.384;2023-07-29T06:28:31;2.42;;;1.90;;
34433;SDS011;34290;48.562;13.384;2023-07-29T06:31:00;3.00;;;2.00;;
34433;SDS011;34290;48.562;13.384;2023-07-29T06:33:27;3.25;;;2.13;;
34433;SDS011;34290;48.562;13.384;2023-07-29T06:35:54;5.13;;;2.20;;
34433;SDS011;34290;48.562;13.384;2023-07-29T06:38:21;3.38;;;2.13;;
34433;SDS011;34290;48.562;13.384;2023-07-29T06:40:48;3.30;;;1.83;;
34433;SDS011;34290;48.562;13.384;2023-07-29T06:43:15;3.33;;;2.22;;
34433;SDS011;34290;48.562;13.384;2023-07-29T06:45:42;2.47;;;2.03;;
34433;SDS011;34290;48.562;13.384;2023-07-29T06:48:11;8.65;;;2.10;;
34433;SDS011;34290;48.562;13.384;2023-07-29T06:50:38;4.60;;;2.22;;
34433;SDS011;34290;48.562;13.384;2023-07-29T06:53:05;4.57;;;2.08;;
34433;SDS011;34290;48.562;13.384;2023-07-29T06:55:32;3.92;;;2.20;;
34433;SDS011;34290;48.562;13.384;2023-07-29T06:57:59;5.03;;;1.98;;
34433;SDS011;34290;48.562;13.384;2023-07-29T07:00:27;3.03;;;2.17;;
34433;SDS011;34290;48.562;13.384;2023-07-29T07:02:54;3.25;;;2.20;;
34433;SDS011;34290;48.562;13.384;2023-07-29T07:05:22;6.85;;;2.30;;
34433;SDS011;34290;48.562;13.384;2023-07-29T07:07:51;4.07;;;2.42;;
34433;SDS011;34290;48.562;13.384;2023-07-29T07:10:18;5.90;;;2.30;;
34433;SDS011;34290;48.562;13.384;2023-07-29T07:12:45;5.28;;;2.08;;
34433;SDS011;34290;48.562;13.384;2023-07-29T07:15:12;3.20;;;1.75;;
34433;SDS011;34290;48.562;13.384;2023-07-29T07:17:39;3.25;;;2.00;;
34433;SDS011;34290;48.562;13.384;2023-07-29T07:20:07;5.05;;;2.20;;
34433;SDS011;34290;48.562;13.384;2023-07-29T07:22:35;3.47;;;2.38;;
34433;SDS011;34290;48.562;13.384;2023-07-29T07:25:02;2.80;;;2.10;;
34433;SDS011;34290;48.562;13.384;2023-07-29T07:27:30;3.92;;;2.20;;
34433;SDS011;34290;48.562;13.384;2023-07-29T07:29:57;2.78;;;1.85;;
34433;SDS011;34290;48.562;13.384;2023-07-29T07:32:24;2.05;;;1.48;;
34433;SDS011;34290;48.562;13.384;2023-07-29T07:34:50;4.25;;;1.83;;
34433;SDS011;34290;48.562;13.384;2023-07-29T07:37:17;3.97;;;1.75;;
34433;SDS011;34290;48.562;13.384;2023-07-29T07:39:46;4.95;;;2.10;;
34433;SDS011;34290;48.562;13.384;2023-07-29T07:42:13;5.95;;;1.92;;
34433;SDS011;34290;48.562;13.384;2023-07-29T07:44:40;4.60;;;2.00;;
34433;SDS011;34290;48.562;13.384;2023-07-29T07:47:07;3.58;;;1.98;;
34433;SDS011;34290;48.562;13.384;2023-07-29T07:49:34;3.55;;;1.80;;
34433;SDS011;34290;48.562;13.384;2023-07-29T07:52:01;3.15;;;1.90;;
34433;SDS011;34290;48.562;13.384;2023-07-29T07:54:28;4.55;;;2.00;;
34433;SDS011;34290;48.562;13.384;2023-07-29T07:56:57;3.92;;;1.88;;
34433;SDS011;34290;48.562;13.384;2023-07-29T07:59:24;5.78;;;2.30;;
34433;SDS011;34290;48.562;13.384;2023-07-29T08:01:51;3.42;;;1.75;;
34433;SDS011;34290;48.562;13.384;2023-07-29T08:04:18;2.78;;;1.63;;
34433;SDS011;34290;48.562;13.384;2023-07-29T08:06:45;2.75;;;1.75;;
34433;SDS011;34290;48.562;13.384;2023-07-29T08:09:12;3.22;;;1.55;;
34433;SDS011;34290;48.562;13.384;2023-07-29T08:11:40;5.15;;;1.80;;
34433;SDS011;34290;48.562;13.384;2023-07-29T08:14:08;2.72;;;1.80;;
34433;SDS011;34290;48.562;13.384;2023-07-29T08:16:35;3.20;;;1.88;;
34433;SDS011;34290;48.562;13.384;2023-07-29T08:19:02;5.18;;;2.05;;
34433;SDS011;34290;48.562;13.384;2023-07-29T08:21:29;3.28;;;1.80;;
34433;SDS011;34290;48.562;13.384;2023-07-29T08:23:56;2.97;;;1.38;;
34433;SDS011;34290;48.562;13.384;2023-07-29T08:26:23;3.38;;;1.63;;
34433;SDS011;34290;48.562;13.384;2023-07-29T08:28:50;3.60;;;1.80;;
34433;SDS011;34290;48.562;13.384;2023-07-29T08:31:19;3.53;;;2.00;;
34433;SDS011;34290;48.562;13.384;2023-07-29T08:33:45;4.10;;;1.55;;
34433;SDS011;34290;48.562;13.384;2023-07-29T08:36:12;4.03;;;1.80;;
34433;SDS011;34290;48.562;13.384;2023-07-29T08:38:39;4.25;;;2.00;;
34433;SDS011;34290;48.562;13.384;2023-07-29T08:41:10;3.38;;;1.75;;
34433;SDS011;34290;48.562;13.384;2023-07-29T08:43:41;2.38;;;1.67;;
34433;SDS011;34290;48.562;13.384;2023-07-29T08:46:15;2.45;;;1.60;;
34433;SDS011;34290;48.562;13.384;2023-07-29T08:48:43;3.40;;;1.90;;
34433;SDS011;34290;48.562;13.384;2023-07-29T08:51:11;2.05;;;1.60;;
34433;SDS011;34290;48.562;13.384;2023-07-29T08:53:39;3.70;;;1.90;;
34433;SDS011;34290;48.562;13.384;2023-07-29T08:56:06;4.55;;;1.80;;
34433;SDS011;34290;48.562;13.384;2023-07-29T08:58:34;8.23;;;1.77;;
34433;SDS011;34290;48.562;13.384;2023-07-29T09:01:01;9.45;;;3.00;;
34433;SDS011;34290;48.562;13.384;2023-07-29T09:03:28;10.88;;;2.97;;
34433;SDS011;34290;48.562;13.384;2023-07-29T09:05:57;8.77;;;2.60;;
34433;SDS011;34290;48.562;13.384;2023-07-29T09:08:24;7.30;;;2.35;;
34433;SDS011;34290;48.562;13.384;2023-07-29T09:10:52;6.32;;;2.33;;
34433;SDS011;34290;48.562;13.384;2023-07-29T09:13:20;5.38;;;2.38;;
34433;SDS011;34290;48.562;13.384;2023-07-29T09:15:47;4.95;;;2.25;;
34433;SDS011;34290;48.562;13.384;2023-07-29T09:18:15;4.53;;;2.53;;
34433;SDS011;34290;48.562;13.384;2023-07-29T09:20:42;7.10;;;2.38;;
34433;SDS011;34290;48.562;13.384;2023-07-29T09:23:11;8.70;;;2.40;;
34433;SDS011;34290;48.562;13.384;2023-07-29T09:25:38;5.47;;;2.70;;
34433;SDS011;34290;48.562;13.384;2023-07-29T09:28:09;7.43;;;2.67;;
34433;SDS011;34290;48.562;13.384;2023-07-29T09:30:37;8.05;;;2.65;;
34433;SDS011;34290;48.562;13.384;2023-07-29T09:33:04;6.38;;;2.72;;
34433;SDS011;34290;48.562;13.384;2023-07-29T09:35:32;6.68;;;2.42;;
34433;SDS011;34290;48.562;13.384;2023-07-29T09:38:00;8.60;;;2.70;;
34433;SDS011;34290;48.562;13.384;2023-07-29T09:40:33;7.90;;;2.80;;
34433;SDS011;34290;48.562;13.384;2023-07-29T09:43:01;7.55;;;2.35;;
34433;SDS011;34290;48.562;13.384;2023-07-29T09:45:29;5.20;;;2.40;;
34433;SDS011;34290;48.562;13.384;2023-07-29T09:47:57;6.30;;;2.22;;
34433;SDS011;34290;48.562;13.384;2023-07-29T09:50:24;5.20;;;2.50;;
34433;SDS011;34290;48.562;13.384;2023-07-29T09:52:52;8.23;;;1.90;;
34433;SDS011;34290;48.562;13.384;2023-07-29T09:55:20;3.65;;;1.90;;
34433;SDS011;34290;48.562;13.384;2023-07-29T09:57:54;5.60;;;2.65;;
34433;SDS011;34290;48.562;13.384;2023-07-29T10:00:22;4.28;;;2.00;;
34433;SDS011;34290;48.562;13.384;2023-07-29T10:02:50;4.78;;;1.85;;
34433;SDS011;34290;48.562;13.384;2023-07-29T10:05:18;6.45;;;1.90;;
34433;SDS011;34290;48.562;13.384;2023-07-29T10:07:45;4.40;;;1.80;;
34433;SDS011;34290;48.562;13.384;2023-07-29T10:10:13;3.45;;;1.85;;
34433;SDS011;34290;48.562;13.384;2023-07-29T10:12:40;3.80;;;2.00;;
34433;SDS011;34290;48.562;13.384;2023-07-29T10:15:09;5.10;;;1.83;;
34433;SDS011;34290;48.562;13.384;2023-07-29T10:17:37;4.82;;;1.80;;
34433;SDS011;34290;48.562;13.384;2023-07-29T10:20:05;5.10;;;1.80;;
34433;SDS011;34290;48.562;13.384;2023-07-29T10:22:36;4.82;;;1.98;;
34433;SDS011;34290;48.562;13.384;2023-07-29T10:25:04;3.83;;;1.60;;
34433;SDS011;34290;48.562;13.384;2023-07-29T10:27:34;3.25;;;1.90;;
34433;SDS011;34290;48.562;13.384;2023-07-29T10:30:10;4.82;;;2.00;;
34433;SDS011;34290;48.562;13.384;2023-07-29T10:32:38;3.58;;;2.00;;
34433;SDS011;34290;48.562;13.384;2023-07-29T10:35:08;4.28;;;2.00;;
34433;SDS011;34290;48.562;13.384;2023-07-29T10:37:36;4.28;;;2.00;;
34433;SDS011;34290;48.562;13.384;2023-07-29T10:40:05;5.38;;;1.98;;
34433;SDS011;34290;48.562;13.384;2023-07-29T10:42:34;4.72;;;2.17;;
34433;SDS011;34290;48.562;13.384;2023-07-29T10:45:16;6.10;;;2.70;;
34433;SDS011;34290;48.562;13.384;2023-07-29T10:47:44;5.82;;;2.20;;
34433;SDS011;34290;48.562;13.384;2023-07-29T10:50:17;4.03;;;2.05;;
34433;SDS011;34290;48.562;13.384;2023-07-29T10:52:46;4.28;;;2.40;;
34433;SDS011;34290;48.562;13.384;2023-07-29T10:58:05;4.25;;;2.50;;
34433;SDS011;34290;48.562;13.384;2023-07-29T11:00:35;4.80;;;2.22;;
34433;SDS011;34290;48.562;13.384;2023-07-29T11:03:03;4.10;;;2.58;;
34433;SDS011;34290;48.562;13.384;2023-07-29T11:05:41;8.73;;;2.45;;
34433;SDS011;34290;48.562;13.384;2023-07-29T11:08:20;3.13;;;2.20;;
34433;SDS011;34290;48.562;13.384;2023-07-29T11:10:57;5.05;;;2.60;;
34433;SDS011;34290;48.562;13.384;2023-07-29T11:13:26;5.63;;;2.10;;
34433;SDS011;34290;48.562;13.384;2023-07-29T11:15:55;4.47;;;2.42;;
34433;SDS011;34290;48.562;13.384;2023-07-29T11:18:25;4.18;;;2.05;;
34433;SDS011;34290;48.562;13.384;2023-07-29T11:20:54;5.68;;;2.30;;
34433;SDS011;34290;48.562;13.384;2023-07-29T11:23:27;4.97;;;2.00;;
34433;SDS011;34290;48.562;13.384;2023-07-29T11:25:56;3.58;;;2.20;;
34433;SDS011;34290;48.562;13.384;2023-07-29T11:28:23;3.47;;;1.85;;
34433;SDS011;34290;48.562;13.384;2023-07-29T11:30:50;3.65;;;1.95;;
34433;SDS011;34290;48.562;13.384;2023-07-29T11:33:19;3.40;;;1.98;;
34433;SDS011;34290;48.562;13.384;2023-07-29T11:35:47;3.22;;;1.63;;
34433;SDS011;34290;48.562;13.384;2023-07-29T11:38:14;3.55;;;1.92;;
34433;SDS011;34290;48.562;13.384;2023-07-29T11:40:42;4.45;;;1.90;;
34433;SDS011;34290;48.562;13.384;2023-07-29T11:43:09;4.00;;;2.35;;
34433;SDS011;34290;48.562;13.384;2023-07-29T11:45:44;3.47;;;2.20;;
34433;SDS011;34290;48.562;13.384;2023-07-29T11:48:11;2.53;;;1.80;;
34433;SDS011;34290;48.562;13.384;2023-07-29T11:50:40;3.00;;;1.92;;
34433;SDS011;34290;48.562;13.384;2023-07-29T11:53:07;2.20;;;1.67;;
34433;SDS011;34290;48.562;13.384;2023-07-29T11:55:34;3.92;;;2.20;;
34433;SDS011;34290;48.562;13.384;2023-07-29T11:58:01;4.43;;;2.00;;
34433;SDS011;34290;48.562;13.384;2023-07-29T12:00:28;2.58;;;1.80;;
34433;SDS011;34290;48.562;13.384;2023-07-29T12:02:56;6.35;;;1.55;;
34433;SDS011;34290;48.562;13.384;2023-07-29T12:05:23;4.18;;;1.65;;
34433;SDS011;34290;48.562;13.384;2023-07-29T12:07:52;4.40;;;2.00;;
34433;SDS011;34290;48.562;13.384;2023-07-29T12:10:19;3.40;;;1.90;;
34433;SDS011;34290;48.562;13.384;2023-07-29T12:12:47;3.83;;;2.00;;
34433;SDS011;34290;48.562;13.384;2023-07-29T12:15:22;2.92;;;1.80;;
34433;SDS011;34290;48.562;13.384;2023-07-29T12:17:52;3.65;;;1.90;;
34433;SDS011;34290;48.562;13.384;2023-07-29T12:20:21;4.03;;;2.22;;
34433;SDS011;34290;48.562;13.384;2023-07-29T12:22:52;3.40;;;2.05;;
34433;SDS011;34290;48.562;13.384;2023-07-29T12:25:20;6.80;;;2.00;;
34433;SDS011;34290;48.562;13.384;2023-07-29T12:27:48;3.55;;;2.10;;
34433;SDS011;34290;48.562;13.384;2023-07-29T12:30:15;4.90;;;2.40;;
34433;SDS011;34290;48.562;13.384;2023-07-29T12:32:43;4.82;;;2.10;;
34433;SDS011;34290;48.562;13.384;2023-07-29T12:35:11;3.22;;;2.20;;
34433;SDS011;34290;48.562;13.384;2023-07-29T12:37:38;10.70;;;2.75;;
34433;SDS011;34290;48.562;13.384;2023-07-29T12:40:19;3.00;;;2.17;;
34433;SDS011;34290;48.562;13.384;2023-07-29T12:42:48;4.93;;;2.33;;
34433;SDS011;34290;48.562;13.384;2023-07-29T12:45:16;3.75;;;2.30;;
34433;SDS011;34290;48.562;13.384;2023-07-29T12:47:44;5.20;;;3.00;;
34433;SDS011;34290;48.562;13.384;2023-07-29T12:50:11;7.10;;;3.00;;
34433;SDS011;34290;48.562;13.384;2023-07-29T12:52:38;5.10;;;2.50;;
34433;SDS011;34290;48.562;13.384;2023-07-29T12:55:05;4.50;;;2.70;;
34433;SDS011;34290;48.562;13.384;2023-07-29T12:57:39;6.47;;;2.40;;
34433;SDS011;34290;48.562;13.384;2023-07-29T13:00:08;3.80;;;2.47;;
34433;SDS011;34290;48.562;13.384;2023-07-29T13:02:35;5.50;;;2.47;;
34433;SDS011;34290;48.562;13.384;2023-07-29T13:05:02;4.50;;;2.70;;
34433;SDS011;34290;48.562;13.384;2023-07-29T13:07:30;6.25;;;2.45;;
34433;SDS011;34290;48.562;13.384;2023-07-29T13:09:57;4.28;;;2.58;;
34433;SDS011;34290;48.562;13.384;2023-07-29T13:12:24;6.93;;;3.05;;
34433;SDS011;34290;48.562;13.384;2023-07-29T13:14:53;7.05;;;2.88;;
34433;SDS011;34290;48.562;13.384;2023-07-29T13:17:21;6.50;;;3.00;;
34433;SDS011;34290;48.562;13.384;2023-07-29T13:19:48;4.63;;;2.55;;
34433;SDS011;34290;48.562;13.384;2023-07-29T13:22:15;4.70;;;2.63;;
34433;SDS011;34290;48.562;13.384;2023-07-29T13:24:42;4.13;;;2.70;;
34433;SDS011;34290;48.562;13.384;2023-07-29T13:27:09;5.72;;;2.42;;
34433;SDS011;34290;48.562;13.384;2023-07-29T13:29:36;5.22;;;2.80;;
34433;SDS011;34290;48.562;13.384;2023-07-29T13:32:06;5.18;;;2.25;;
34433;SDS011;34290;48.562;13.384;2023-07-29T13:34:33;5.38;;;2.70;;
34433;SDS011;34290;48.562;13.384;2023-07-29T13:37:00;5.25;;;2.30;;
34433;SDS011;34290;48.562;13.384;2023-07-29T13:39:27;6.03;;;2.33;;
34433;SDS011;34290;48.562;13.384;2023-07-29T13:41:54;3.97;;;2.05;;
34433;SDS011;34290;48.562;13.384;2023-07-29T13:44:22;5.32;;;2.45;;
34433;SDS011;34290;48.562;13.384;2023-07-29T13:46:49;3.67;;;2.38;;
34433;SDS011;34290;48.562;13.384;2023-07-29T13:49:18;3.50;;;2.10;;
34433;SDS011;34290;48.562;13.384;2023-07-29T13:51:45;3.67;;;2.33;;
34433;SDS011;34290;48.562;13.384;2023-07-29T13:54:12;4.03;;;2.25;;
34433;SDS011;34290;48.562;13.384;2023-07-29T13:56:39;3.50;;;2.28;;
34433;SDS011;34290;48.562;13.384;2023-07-29T13:59:06;3.67;;;2.20;;
34433;SDS011;34290;48.562;13.384;2023-07-29T14:01:33;5.35;;;2.20;;
34433;SDS011;34290;48.562;13.384;2023-07-29T14:04:00;3.42;;;1.92;;
34433;SDS011;34290;48.562;13.384;2023-07-29T14:06:29;3.78;;;2.30;;
34433;SDS011;34290;48.562;13.384;2023-07-29T14:08:56;4.50;;;2.42;;
34433;SDS011;34290;48.562;13.384;2023-07-29T14:11:23;9.50;;;2.45;;
34433;SDS011;34290;48.562;13.384;2023-07-29T14:13:50;3.50;;;2.20;;
34433;SDS011;34290;48.562;13.384;2023-07-29T14:16:17;3.08;;;2.08;;
34433;SDS011;34290;48.562;13.384;2023-07-29T14:18:44;3.10;;;2.05;;
34433;SDS011;34290;48.562;13.384;2023-07-29T14:21:11;4.45;;;2.15;;
34433;SDS011;34290;48.562;13.384;2023-07-29T14:23:39;3.83;;;2.22;;
34433;SDS011;34290;48.562;13.384;2023-07-29T14:26:06;4.43;;;2.28;;
34433;SDS011;34290;48.562;13.384;2023-07-29T14:28:35;4.20;;;1.95;;
34433;SDS011;34290;48.562;13.384;2023-07-29T14:31:02;3.55;;;2.10;;
34433;SDS011;34290;48.562;13.384;2023-07-29T14:33:29;3.92;;;2.00;;
34433;SDS011;34290;48.562;13.384;2023-07-29T14:35:56;3.05;;;1.83;;
34433;SDS011;34290;48.562;13.384;2023-07-29T14:38:23;2.67;;;1.90;;
34433;SDS011;34290;48.562;13.384;2023-07-29T14:40:52;3.33;;;2.15;;